Time;durP1;ratioP1;P1;durP2;ratioP2;P2;SDS_P1;SDS_P2;PMS_P1;PMS_P2;Temp;Humidity;BMP_temperature;BMP_pressure;BME280_temperature;BME280_humidity;BME280_pressure;Samples;Min_cycle;Max_cycle;Signal;HPM_P1;HPM_P2
2022/04/27 00:00:34;;;;;;;58.20;2.80;;;;;;;;;;5073036;28;20940;-74
2022/04/27 00:03:01;;;;;;;58.40;3.00;;;;;;;;;;5073436;28;20458;-74
2022/04/27 00:05:29;;;;;;;58.20;2.80;;;;;;;;;;5073127;28;20461;-74
2022/04/27 00:07:57;;;;;;;58.30;2.77;;;;;;;;;;5072551;28;20543;-72
2022/04/27 00:10:24;;;;;;;58.17;2.90;;;;;;;;;;5073173;28;20571;-75
2022/04/27 00:12:53;;;;;;;58.13;2.90;;;;;;;;;;5072890;28;20450;-76
2022/04/27 00:15:23;;;;;;;58.20;2.73;;;;;;;;;;5073298;28;20824;-76
2022/04/27 00:17:50;;;;;;;57.97;2.70;;;;;;;;;;5072607;28;20540;-75
2022/04/27 00:20:17;;;;;;;58.30;2.97;;;;;;;;;;5073319;28;20557;-75
2022/04/27 00:22:44;;;;;;;57.97;2.80;;;;;;;;;;5072980;28;20939;-74
2022/04/27 00:25:11;;;;;;;57.97;2.50;;;;;;;;;;5072805;28;20979;-75
2022/04/27 00:27:38;;;;;;;58.03;2.80;;;;;;;;;;5071854;28;20540;-75
2022/04/27 00:30:08;;;;;;;58.10;2.57;;;;;;;;;;5073094;28;20470;-76
2022/04/27 00:32:36;;;;;;;58.00;2.70;;;;;;;;;;5072988;28;20460;-75
2022/04/27 00:35:05;;;;;;;57.87;2.67;;;;;;;;;;5072844;28;20549;-76
2022/04/27 00:37:32;;;;;;;58.10;2.63;;;;;;;;;;5071695;28;20521;-76
2022/04/27 00:39:59;;;;;;;58.27;2.83;;;;;;;;;;5072679;28;20472;-75
2022/04/27 00:42:26;;;;;;;58.07;2.80;;;;;;;;;;5072868;28;20864;-75
2022/04/27 00:44:54;;;;;;;57.97;2.70;;;;;;;;;;5072025;28;20454;-75
2022/04/27 00:47:22;;;;;;;58.10;2.80;;;;;;;;;;5073932;28;20450;-75
2022/04/27 00:49:50;;;;;;;57.97;2.67;;;;;;;;;;5092074;28;20484;-75
2022/04/27 00:52:18;;;;;;;58.20;3.33;;;;;;;;;;5092017;28;20452;-75
2022/04/27 00:54:46;;;;;;;58.03;2.97;;;;;;;;;;5092644;28;20857;-75
2022/04/27 00:57:13;;;;;;;58.10;2.70;;;;;;;;;;5091702;28;20568;-75
2022/04/27 00:59:40;;;;;;;58.17;2.87;;;;;;;;;;5092627;28;20481;-75
2022/04/27 01:02:08;;;;;;;58.07;2.80;;;;;;;;;;5092706;28;20445;-75
2022/04/27 01:04:38;;;;;;;58.10;2.90;;;;;;;;;;5092660;28;20532;-75
2022/04/27 01:07:05;;;;;;;57.93;2.80;;;;;;;;;;5092508;28;20468;-77
2022/04/27 01:09:33;;;;;;;58.00;2.50;;;;;;;;;;5091808;28;20497;-75
2022/04/27 01:12:01;;;;;;;58.00;2.70;;;;;;;;;;5092202;28;20496;-75
2022/04/27 01:14:28;;;;;;;57.97;2.67;;;;;;;;;;5091910;28;20449;-76
2022/04/27 01:16:55;;;;;;;57.87;2.80;;;;;;;;;;5092185;28;20484;-76
2022/04/27 01:19:23;;;;;;;57.87;2.80;;;;;;;;;;5087274;28;20548;-72
2022/04/27 01:21:52;;;;;;;58.10;2.83;;;;;;;;;;5092465;28;20457;-75
2022/04/27 01:24:20;;;;;;;58.10;3.03;;;;;;;;;;5092426;28;20552;-75
2022/04/27 01:26:47;;;;;;;58.17;3.00;;;;;;;;;;5092513;28;21088;-75
2022/04/27 01:29:16;;;;;;;58.13;3.30;;;;;;;;;;5090853;28;20842;-76
2022/04/27 01:31:43;;;;;;;58.10;2.80;;;;;;;;;;5091757;28;20857;-75
2022/04/27 01:34:11;;;;;;;58.07;2.60;;;;;;;;;;5091385;28;20453;-75
2022/04/27 01:36:38;;;;;;;58.17;2.77;;;;;;;;;;5091780;28;20488;-75
2022/04/27 01:39:07;;;;;;;58.33;3.33;;;;;;;;;;5090950;28;20466;-75
2022/04/27 01:41:34;;;;;;;58.10;3.23;;;;;;;;;;5091622;28;20445;-75
2022/04/27 01:44:01;;;;;;;58.13;3.10;;;;;;;;;;5091971;28;20456;-75
2022/04/27 01:46:29;;;;;;;57.77;2.80;;;;;;;;;;5092086;28;20532;-75
2022/04/27 01:48:56;;;;;;;58.00;2.90;;;;;;;;;;5090288;28;20481;-75
2022/04/27 01:54:14;;;;;;;57.67;2.93;;;;;;;;;;5084266;28;20945;-75
2022/04/27 01:54:15;;;;;;;58.07;3.33;;;;;;;;;;5090196;28;20461;-75
2022/04/27 01:56:42;;;;;;;58.17;3.00;;;;;;;;;;5091341;28;20839;-75
2022/04/27 01:59:09;;;;;;;57.87;2.73;;;;;;;;;;5090937;28;20477;-75
2022/04/27 02:01:37;;;;;;;57.83;2.73;;;;;;;;;;5091904;28;20836;-76
2022/04/27 02:04:04;;;;;;;58.03;2.60;;;;;;;;;;5091426;28;20456;-75
2022/04/27 02:06:31;;;;;;;57.87;2.90;;;;;;;;;;5091651;28;20452;-75
2022/04/27 02:08:58;;;;;;;58.70;4.33;;;;;;;;;;5090724;28;20501;-76
2022/04/27 02:11:27;;;;;;;58.30;3.37;;;;;;;;;;5091710;28;20449;-75
2022/04/27 02:13:55;;;;;;;63.53;3.87;;;;;;;;;;5091434;28;20810;-75
2022/04/27 02:16:22;;;;;;;57.93;2.63;;;;;;;;;;5091161;28;20539;-75
2022/04/27 02:18:49;;;;;;;58.07;2.67;;;;;;;;;;5090537;28;20479;-75
2022/04/27 02:21:17;;;;;;;58.07;2.80;;;;;;;;;;5090426;28;20536;-75
2022/04/27 02:23:44;;;;;;;57.97;2.80;;;;;;;;;;5089184;28;20532;-76
2022/04/27 02:26:11;;;;;;;57.97;2.63;;;;;;;;;;5096236;28;20445;-75
2022/04/27 02:28:40;;;;;;;58.00;2.93;;;;;;;;;;5094691;28;20726;-75
2022/04/27 02:31:08;;;;;;;58.07;2.80;;;;;;;;;;5095752;28;20442;-75
2022/04/27 02:33:35;;;;;;;57.90;2.80;;;;;;;;;;5094458;28;20502;-75
2022/04/27 02:36:02;;;;;;;60.07;3.60;;;;;;;;;;5095262;28;20448;-75
2022/04/27 02:38:29;;;;;;;57.87;2.67;;;;;;;;;;5094503;28;20490;-75
2022/04/27 02:40:56;;;;;;;57.93;2.60;;;;;;;;;;5095313;28;20819;-75
2022/04/27 02:43:24;;;;;;;58.00;2.80;;;;;;;;;;5095392;28;20891;-75
2022/04/27 02:45:52;;;;;;;57.77;2.53;;;;;;;;;;5095308;28;20897;-75
2022/04/27 02:48:19;;;;;;;57.93;2.67;;;;;;;;;;5094199;28;20483;-75
2022/04/27 02:53:31;;;;;;;57.77;2.57;;;;;;;;;;5093774;28;20807;-75
2022/04/27 02:55:58;;;;;;;58.00;2.60;;;;;;;;;;5093900;28;20533;-75
2022/04/27 02:58:25;;;;;;;57.90;2.60;;;;;;;;;;5094503;28;21026;-75
2022/04/27 03:00:54;;;;;;;58.13;2.50;;;;;;;;;;5095029;28;20454;-75
2022/04/27 03:03:21;;;;;;;58.07;2.60;;;;;;;;;;5095543;28;20805;-75
2022/04/27 03:05:48;;;;;;;57.97;2.63;;;;;;;;;;5095572;28;20441;-76
2022/04/27 03:08:15;;;;;;;57.87;2.67;;;;;;;;;;5094667;28;20495;-75
2022/04/27 03:10:42;;;;;;;57.77;2.67;;;;;;;;;;5095443;28;20475;-76
2022/04/27 03:13:10;;;;;;;58.17;2.60;;;;;;;;;;5095132;28;20453;-75
2022/04/27 03:15:37;;;;;;;57.97;2.80;;;;;;;;;;5095265;28;20466;-72
2022/04/27 03:18:19;;;;;;;57.83;2.70;;;;;;;;;;5094233;28;20489;-75
2022/04/27 03:20:47;;;;;;;57.80;2.60;;;;;;;;;;5095264;28;20456;-75
2022/04/27 03:23:15;;;;;;;57.87;2.70;;;;;;;;;;5095020;28;20450;-73
2022/04/27 03:25:42;;;;;;;57.73;2.50;;;;;;;;;;5095295;28;20438;-74
2022/04/27 03:28:09;;;;;;;58.20;3.10;;;;;;;;;;5094516;28;20448;-74
2022/04/27 03:30:36;;;;;;;57.97;2.43;;;;;;;;;;5095145;28;20481;-73
2022/04/27 03:33:03;;;;;;;58.17;2.90;;;;;;;;;;5094853;28;20450;-73
2022/04/27 03:35:32;;;;;;;58.13;2.57;;;;;;;;;;5093646;28;20878;-73
2022/04/27 03:37:59;;;;;;;57.97;2.50;;;;;;;;;;5094094;28;20874;-74
2022/04/27 03:40:26;;;;;;;58.00;2.70;;;;;;;;;;5094707;28;20477;-73
2022/04/27 03:42:54;;;;;;;58.13;2.47;;;;;;;;;;5094419;28;20506;-73
2022/04/27 03:45:21;;;;;;;57.90;2.80;;;;;;;;;;5094530;28;20521;-73
2022/04/27 03:47:48;;;;;;;58.03;2.60;;;;;;;;;;5093892;28;20446;-73
2022/04/27 03:50:15;;;;;;;58.07;2.57;;;;;;;;;;5094296;28;20823;-74
2022/04/27 03:52:43;;;;;;;58.10;2.40;;;;;;;;;;5094041;28;20455;-75
2022/04/27 03:55:11;;;;;;;58.17;3.03;;;;;;;;;;5094475;28;20875;-73
2022/04/27 03:57:38;;;;;;;58.03;2.50;;;;;;;;;;5093681;28;20478;-73
2022/04/27 04:00:06;;;;;;;57.97;2.70;;;;;;;;;;5094077;28;20520;-74
2022/04/27 04:02:33;;;;;;;57.77;2.70;;;;;;;;;;5094045;28;20459;-74
2022/04/27 04:05:01;;;;;;;57.73;2.60;;;;;;;;;;5094079;28;20941;-74
2022/04/27 04:07:28;;;;;;;57.77;2.87;;;;;;;;;;5093344;28;20643;-74
2022/04/27 04:09:56;;;;;;;58.10;3.00;;;;;;;;;;5094117;28;20469;-74
2022/04/27 04:12:23;;;;;;;57.87;2.70;;;;;;;;;;5094150;28;20460;-74
2022/04/27 04:14:51;;;;;;;57.97;2.60;;;;;;;;;;5094076;28;20479;-73
2022/04/27 04:17:18;;;;;;;58.17;3.10;;;;;;;;;;5093006;28;20484;-74
2022/04/27 04:19:46;;;;;;;57.90;2.80;;;;;;;;;;5093581;28;20473;-73
2022/04/27 04:22:13;;;;;;;57.87;2.80;;;;;;;;;;5094063;28;20453;-73
2022/04/27 04:28:29;;;;;;;58.00;2.93;;;;;;;;;;5093819;28;20457;-74
2022/04/27 04:30:14;;;;;;;58.90;4.73;;;;;;;;;;5093244;28;20507;-74
2022/04/27 04:32:42;;;;;;;58.70;4.47;;;;;;;;;;5093828;28;20452;-73
2022/04/27 04:35:09;;;;;;;57.97;2.80;;;;;;;;;;5093599;28;20448;-74
2022/04/27 04:37:36;;;;;;;57.93;2.63;;;;;;;;;;5092751;28;20576;-74
2022/04/27 04:40:04;;;;;;;57.97;2.80;;;;;;;;;;5093433;28;20998;-73
2022/04/27 04:42:32;;;;;;;57.90;2.90;;;;;;;;;;5093182;28;20536;-73
2022/04/27 04:44:59;;;;;;;57.97;3.00;;;;;;;;;;5093238;28;20442;-74
2022/04/27 04:47:26;;;;;;;59.83;3.93;;;;;;;;;;5092447;28;20607;-73
2022/04/27 04:49:54;;;;;;;57.97;2.90;;;;;;;;;;5093080;28;20859;-73
2022/04/27 04:52:21;;;;;;;57.67;3.00;;;;;;;;;;5093115;28;20471;-74
2022/04/27 04:54:48;;;;;;;57.77;2.80;;;;;;;;;;5093304;28;20446;-73
2022/04/27 04:57:15;;;;;;;58.00;2.73;;;;;;;;;;5092810;28;20484;-75
2022/04/27 04:59:43;;;;;;;57.87;2.60;;;;;;;;;;5092950;28;20509;-74
2022/04/27 05:02:11;;;;;;;57.83;2.60;;;;;;;;;;5092966;28;20463;-74
2022/04/27 05:04:38;;;;;;;57.83;2.70;;;;;;;;;;5093064;28;20476;-74
2022/04/27 05:07:05;;;;;;;58.03;2.80;;;;;;;;;;5092792;28;20534;-74
2022/04/27 05:09:32;;;;;;;57.70;2.67;;;;;;;;;;5092019;28;20909;-74
2022/04/27 05:11:59;;;;;;;57.93;2.60;;;;;;;;;;5092606;28;20540;-74
2022/04/27 05:14:27;;;;;;;58.10;3.63;;;;;;;;;;5092561;28;20453;-74
2022/04/27 05:16:55;;;;;;;57.73;2.60;;;;;;;;;;5092712;28;20541;-74
2022/04/27 05:19:22;;;;;;;58.70;3.60;;;;;;;;;;5091731;28;21071;-70
2022/04/27 05:21:50;;;;;;;57.93;2.90;;;;;;;;;;5092591;28;20486;-75
2022/04/27 05:24:17;;;;;;;57.77;2.97;;;;;;;;;;5092481;28;20514;-74
2022/04/27 05:26:44;;;;;;;57.93;2.70;;;;;;;;;;5092693;28;20485;-74
2022/04/27 05:32:03;;;;;;;57.83;2.60;;;;;;;;;;5074498;28;20460;-74
2022/04/27 05:34:33;;;;;;;58.00;3.17;;;;;;;;;;5092380;28;20526;-74
2022/04/27 05:37:00;;;;;;;58.07;2.80;;;;;;;;;;5092195;28;20535;-74
2022/04/27 05:39:27;;;;;;;57.97;3.00;;;;;;;;;;5091517;28;20922;-74
2022/04/27 05:41:55;;;;;;;58.30;3.47;;;;;;;;;;5092500;28;20774;-75
2022/04/27 05:44:23;;;;;;;57.97;3.40;;;;;;;;;;5092386;28;20816;-74
2022/04/27 05:46:50;;;;;;;57.77;2.47;;;;;;;;;;5092242;28;20453;-74
2022/04/27 05:49:18;;;;;;;57.87;3.03;;;;;;;;;;5091292;28;20482;-74
2022/04/27 05:51:46;;;;;;;57.90;3.20;;;;;;;;;;5092181;28;20456;-74
2022/04/27 05:54:14;;;;;;;58.30;3.30;;;;;;;;;;5092479;28;20864;-74
2022/04/27 05:56:41;;;;;;;58.10;3.30;;;;;;;;;;5092198;28;20446;-75
2022/04/27 05:59:08;;;;;;;57.93;2.80;;;;;;;;;;5090549;28;20482;-75
2022/04/27 06:01:36;;;;;;;57.57;2.60;;;;;;;;;;5092065;28;20485;-74
2022/04/27 06:04:03;;;;;;;57.87;2.60;;;;;;;;;;5091711;28;20963;-75
2022/04/27 06:06:31;;;;;;;57.83;2.80;;;;;;;;;;5092068;28;20886;-75
2022/04/27 06:08:59;;;;;;;57.77;2.60;;;;;;;;;;5091263;28;20790;-74
2022/04/27 06:11:26;;;;;;;57.90;2.80;;;;;;;;;;5091955;28;20828;-75
2022/04/27 06:13:53;;;;;;;57.87;2.43;;;;;;;;;;5091687;28;20537;-76
2022/04/27 06:16:22;;;;;;;58.17;3.40;;;;;;;;;;5092425;28;20456;-74
2022/04/27 06:18:49;;;;;;;57.90;2.90;;;;;;;;;;5090929;28;20572;-74
2022/04/27 06:21:17;;;;;;;57.87;2.50;;;;;;;;;;5092029;28;20450;-75
2022/04/27 06:23:46;;;;;;;57.97;2.80;;;;;;;;;;5091609;28;20450;-75
2022/04/27 06:26:14;;;;;;;57.87;2.60;;;;;;;;;;5091870;28;20802;-75
2022/04/27 06:28:41;;;;;;;57.50;2.60;;;;;;;;;;5090893;28;20462;-75
2022/04/27 06:31:08;;;;;;;58.30;3.53;;;;;;;;;;5091588;28;20942;-74
2022/04/27 06:33:35;;;;;;;57.87;2.70;;;;;;;;;;5091829;28;20469;-75
2022/04/27 06:36:03;;;;;;;57.67;2.60;;;;;;;;;;5091970;28;20481;-74
2022/04/27 06:38:30;;;;;;;57.67;2.80;;;;;;;;;;5090812;28;20524;-74
2022/04/27 06:40:58;;;;;;;57.67;2.50;;;;;;;;;;5091711;28;20537;-74
2022/04/27 06:43:25;;;;;;;57.63;2.50;;;;;;;;;;5091516;28;20567;-74
2022/04/27 06:45:53;;;;;;;57.67;2.50;;;;;;;;;;5091592;28;20442;-74
2022/04/27 06:48:20;;;;;;;57.87;2.80;;;;;;;;;;5090945;28;20454;-75
2022/04/27 06:50:47;;;;;;;57.50;2.50;;;;;;;;;;5089051;28;20454;-76
2022/04/27 06:53:14;;;;;;;57.63;2.50;;;;;;;;;;5090116;28;20442;-74
2022/04/27 06:55:41;;;;;;;57.63;2.40;;;;;;;;;;5090424;28;20562;-74
2022/04/27 06:58:10;;;;;;;57.57;2.50;;;;;;;;;;5089546;28;20478;-77
2022/04/27 07:00:38;;;;;;;57.70;2.53;;;;;;;;;;5090446;28;20470;-76
2022/04/27 07:03:06;;;;;;;57.87;2.73;;;;;;;;;;5090352;28;20450;-75
2022/04/27 07:05:33;;;;;;;57.67;2.90;;;;;;;;;;5090921;28;20442;-75
2022/04/27 07:08:01;;;;;;;57.57;2.20;;;;;;;;;;5090147;28;20449;-77
2022/04/27 07:10:36;;;;;;;57.67;2.70;;;;;;;;;;5092772;28;20469;-76
2022/04/27 07:13:03;;;;;;;57.73;2.60;;;;;;;;;;5094072;28;20886;-76
2022/04/27 07:15:31;;;;;;;57.70;2.50;;;;;;;;;;5094438;28;20807;-76
2022/04/27 07:17:59;;;;;;;57.90;3.17;;;;;;;;;;5093494;28;20450;-77
2022/04/27 07:20:26;;;;;;;57.57;2.50;;;;;;;;;;5094078;28;20472;-76
2022/04/27 07:22:53;;;;;;;57.90;2.40;;;;;;;;;;5093689;28;20445;-76
2022/04/27 07:25:20;;;;;;;57.87;2.90;;;;;;;;;;5093939;28;20821;-76
2022/04/27 07:27:47;;;;;;;57.67;2.47;;;;;;;;;;5093242;28;20442;-76
2022/04/27 07:30:14;;;;;;;57.47;2.33;;;;;;;;;;5094035;28;20485;-76
2022/04/27 07:32:44;;;;;;;57.67;2.50;;;;;;;;;;5093141;28;20443;-76
2022/04/27 07:35:11;;;;;;;57.67;2.67;;;;;;;;;;5094610;28;20477;-75
2022/04/27 07:37:39;;;;;;;57.57;2.40;;;;;;;;;;5089693;28;20446;-73
2022/04/27 07:40:08;;;;;;;57.53;2.30;;;;;;;;;;5093499;28;20498;-75
2022/04/27 07:42:35;;;;;;;57.67;2.70;;;;;;;;;;5093572;28;20972;-75
2022/04/27 07:45:03;;;;;;;57.87;2.87;;;;;;;;;;5093709;28;20540;-73
2022/04/27 07:47:38;;;;;;;57.57;2.80;;;;;;;;;;5092908;28;20457;-73
2022/04/27 07:50:08;;;;;;;57.70;2.70;;;;;;;;;;5093863;28;20559;-73
2022/04/27 07:52:35;;;;;;;57.67;2.40;;;;;;;;;;5093437;28;20461;-72
2022/04/27 07:55:03;;;;;;;57.67;2.50;;;;;;;;;;5093855;28;20457;-69
2022/04/27 07:57:31;;;;;;;57.70;2.43;;;;;;;;;;5092889;28;20481;-73
2022/04/27 07:59:58;;;;;;;57.73;2.40;;;;;;;;;;5093204;28;20490;-71
2022/04/27 08:02:25;;;;;;;57.57;2.30;;;;;;;;;;5092947;28;20545;-69
2022/04/27 08:04:52;;;;;;;57.67;2.40;;;;;;;;;;5093266;28;20449;-72
2022/04/27 08:07:21;;;;;;;57.67;2.40;;;;;;;;;;5093192;28;20886;-73
2022/04/27 08:09:48;;;;;;;57.70;2.60;;;;;;;;;;5093793;28;20558;-72
2022/04/27 08:12:15;;;;;;;57.73;2.50;;;;;;;;;;5093766;28;20820;-71
2022/04/27 08:14:42;;;;;;;57.67;2.40;;;;;;;;;;5093800;28;20458;-73
2022/04/27 08:17:09;;;;;;;57.57;2.47;;;;;;;;;;5092941;28;20813;-73
2022/04/27 08:19:37;;;;;;;57.67;2.47;;;;;;;;;;5092791;28;20498;-71
2022/04/27 08:22:06;;;;;;;57.57;2.87;;;;;;;;;;5092183;28;20450;-70
2022/04/27 08:24:40;;;;;;;57.67;2.43;;;;;;;;;;5092726;28;20443;-70
2022/04/27 08:27:07;;;;;;;57.70;2.30;;;;;;;;;;5093267;28;20484;-76
2022/04/27 08:29:34;;;;;;;57.67;2.30;;;;;;;;;;5092961;28;20493;-73
2022/04/27 08:32:01;;;;;;;57.67;2.40;;;;;;;;;;5093325;28;21224;-72
2022/04/27 08:34:28;;;;;;;57.37;2.50;;;;;;;;;;5093471;28;20454;-72
2022/04/27 08:36:56;;;;;;;57.63;2.50;;;;;;;;;;5093092;28;20449;-70
2022/04/27 08:39:23;;;;;;;57.63;2.50;;;;;;;;;;5092071;28;20490;-73
2022/04/27 08:41:52;;;;;;;57.57;2.57;;;;;;;;;;5092485;28;20455;-74
2022/04/27 08:44:19;;;;;;;57.63;2.40;;;;;;;;;;5092495;28;20531;-74
2022/04/27 08:46:46;;;;;;;57.67;2.47;;;;;;;;;;5092719;28;20557;-72
2022/04/27 08:49:14;;;;;;;57.67;2.40;;;;;;;;;;5092061;28;20561;-71
2022/04/27 08:51:41;;;;;;;57.80;2.50;;;;;;;;;;5093510;28;20450;-73
2022/04/27 08:54:08;;;;;;;57.73;2.67;;;;;;;;;;5092822;28;20931;-73
2022/04/27 08:56:35;;;;;;;57.67;2.50;;;;;;;;;;5093012;28;20538;-74
2022/04/27 08:59:05;;;;;;;57.77;2.33;;;;;;;;;;5091628;28;20491;-73
2022/04/27 09:01:33;;;;;;;57.43;2.30;;;;;;;;;;5092311;28;20458;-71
2022/04/27 09:04:19;;;;;;;57.77;2.30;;;;;;;;;;5091814;28;20538;-73
2022/04/27 09:06:47;;;;;;;57.87;2.50;;;;;;;;;;5092558;28;20447;-71
2022/04/27 09:09:32;;;;;;;57.57;2.40;;;;;;;;;;5091796;28;20467;-72
2022/04/27 09:12:00;;;;;;;57.77;2.53;;;;;;;;;;5092844;28;20453;-72
2022/04/27 09:14:38;;;;;;;58.00;2.60;;;;;;;;;;5092561;28;20976;-72
2022/04/27 09:22:45;;;;;;;57.57;2.30;;;;;;;;;;5091315;28;20434;-70
2022/04/27 09:25:12;;;;;;;57.80;2.30;;;;;;;;;;5091720;28;20442;-71
2022/04/27 09:27:39;;;;;;;57.73;2.20;;;;;;;;;;5091531;28;20520;-71
2022/04/27 09:30:10;;;;;;;57.90;2.40;;;;;;;;;;5092453;28;20492;-71
2022/04/27 09:32:38;;;;;;;57.27;2.20;;;;;;;;;;5091687;28;20448;-73
2022/04/27 09:35:08;;;;;;;57.70;2.77;;;;;;;;;;5092286;28;20478;-71
2022/04/27 09:37:39;;;;;;;61.95;3.00;;;;;;;;;;5074166;28;20968;-71
2022/04/27 09:40:07;;;;;;;57.90;2.60;;;;;;;;;;5071382;28;20497;-70
2022/04/27 09:42:35;;;;;;;57.73;2.47;;;;;;;;;;5068813;28;20798;-72
2022/04/27 09:45:16;;;;;;;57.57;2.43;;;;;;;;;;5071220;28;20809;-72
2022/04/27 09:47:47;;;;;;;57.83;2.90;;;;;;;;;;5070739;28;20954;-73
2022/04/27 09:50:14;;;;;;;57.77;2.40;;;;;;;;;;5071395;28;20461;-72
2022/04/27 09:52:43;;;;;;;57.57;2.20;;;;;;;;;;5071576;28;20488;-73
2022/04/27 09:55:11;;;;;;;57.67;2.27;;;;;;;;;;5071603;28;20477;-72
2022/04/27 09:57:40;;;;;;;57.77;2.40;;;;;;;;;;5070700;28;20447;-73
2022/04/27 10:00:07;;;;;;;57.50;2.30;;;;;;;;;;5070489;28;20796;-72
2022/04/27 10:02:37;;;;;;;57.33;2.40;;;;;;;;;;5070568;28;21135;-73
2022/04/27 10:05:04;;;;;;;57.63;2.47;;;;;;;;;;5070532;28;20456;-73
2022/04/27 10:07:32;;;;;;;57.57;2.30;;;;;;;;;;5069913;28;20840;-74
2022/04/27 10:10:00;;;;;;;57.57;2.20;;;;;;;;;;5070661;28;20462;-72
2022/04/27 10:12:27;;;;;;;57.47;2.30;;;;;;;;;;5071625;28;20938;-72
2022/04/27 10:14:54;;;;;;;57.87;2.20;;;;;;;;;;5082520;28;20535;-73
2022/04/27 10:17:21;;;;;;;57.57;2.07;;;;;;;;;;5090212;28;20477;-71
2022/04/27 10:19:51;;;;;;;57.20;2.27;;;;;;;;;;5090922;28;20868;-72
2022/04/27 10:22:28;;;;;;;57.37;2.50;;;;;;;;;;5091016;28;20456;-73
2022/04/27 10:24:57;;;;;;;57.67;2.20;;;;;;;;;;5091015;28;20823;-74
2022/04/27 10:27:26;;;;;;;57.63;2.27;;;;;;;;;;5090693;28;20509;-73
2022/04/27 10:29:54;;;;;;;57.37;2.17;;;;;;;;;;5091271;28;20554;-73
2022/04/27 10:32:37;;;;;;;57.73;2.30;;;;;;;;;;5091587;28;20451;-72
2022/04/27 10:35:25;;;;;;;57.67;2.40;;;;;;;;;;5091216;28;20573;-73
2022/04/27 10:37:54;;;;;;;57.70;2.20;;;;;;;;;;5090571;28;20963;-74
2022/04/27 10:40:29;;;;;;;57.63;2.10;;;;;;;;;;5090814;28;20524;-72
2022/04/27 10:43:02;;;;;;;57.20;2.10;;;;;;;;;;5090925;28;20459;-72
2022/04/27 10:45:29;;;;;;;57.60;2.30;;;;;;;;;;5089354;28;20461;-73
2022/04/27 10:47:56;;;;;;;57.73;2.27;;;;;;;;;;5094111;28;20442;-73
2022/04/27 10:50:33;;;;;;;57.73;2.43;;;;;;;;;;5095347;28;20473;-72
2022/04/27 10:53:15;;;;;;;57.67;2.33;;;;;;;;;;5094291;28;20446;-73
2022/04/27 10:55:42;;;;;;;57.33;2.20;;;;;;;;;;5094818;28;20489;-73
2022/04/27 10:58:13;;;;;;;57.70;2.30;;;;;;;;;;5093479;28;20455;-73
2022/04/27 11:01:01;;;;;;;57.77;2.80;;;;;;;;;;5094651;28;20874;-72
2022/04/27 11:03:29;;;;;;;57.43;2.33;;;;;;;;;;5094542;28;20503;-73
2022/04/27 11:05:59;;;;;;;57.60;2.20;;;;;;;;;;5094751;28;20449;-74
2022/04/27 11:08:32;;;;;;;57.70;2.40;;;;;;;;;;5094075;28;20457;-72
2022/04/27 11:11:03;;;;;;;57.63;2.40;;;;;;;;;;5095004;28;20539;-73
2022/04/27 11:13:31;;;;;;;57.67;2.30;;;;;;;;;;5094760;28;20455;-72
2022/04/27 11:16:07;;;;;;;57.77;2.27;;;;;;;;;;5093751;28;20458;-73
2022/04/27 11:18:49;;;;;;;57.37;2.20;;;;;;;;;;5090779;28;20471;-73
2022/04/27 11:21:18;;;;;;;57.57;2.30;;;;;;;;;;5094261;28;20557;-71
2022/04/27 11:23:46;;;;;;;57.77;2.50;;;;;;;;;;5094060;28;20955;-71
2022/04/27 11:26:13;;;;;;;57.67;2.20;;;;;;;;;;5094519;28;20533;-68
2022/04/27 11:28:41;;;;;;;57.90;2.23;;;;;;;;;;5093431;28;20478;-71
2022/04/27 11:31:08;;;;;;;57.63;2.20;;;;;;;;;;5094388;28;20438;-71
2022/04/27 11:33:39;;;;;;;57.27;2.10;;;;;;;;;;5094444;28;20442;-71
2022/04/27 11:36:06;;;;;;;57.53;2.20;;;;;;;;;;5094430;28;20450;-72
2022/04/27 11:38:39;;;;;;;57.40;2.50;;;;;;;;;;5093441;28;20538;-71
2022/04/27 11:41:14;;;;;;;57.77;2.20;;;;;;;;;;5093727;28;20532;-72
2022/04/27 11:43:41;;;;;;;57.67;2.33;;;;;;;;;;5093718;28;20448;-71
2022/04/27 11:46:09;;;;;;;57.67;2.43;;;;;;;;;;5094084;28;20490;-71
2022/04/27 11:48:36;;;;;;;57.37;2.10;;;;;;;;;;5088746;28;20803;-73
2022/04/27 11:51:06;;;;;;;57.67;2.13;;;;;;;;;;5094272;28;20441;-72
2022/04/27 11:53:42;;;;;;;57.93;2.77;;;;;;;;;;5093677;28;20930;-72
2022/04/27 11:56:11;;;;;;;57.70;2.20;;;;;;;;;;5092733;28;20474;-71
2022/04/27 11:58:38;;;;;;;57.47;2.20;;;;;;;;;;5093357;28;20491;-71
2022/04/27 12:01:06;;;;;;;58.20;2.77;;;;;;;;;;5093241;28;20486;-72
2022/04/27 12:03:40;;;;;;;57.50;2.50;;;;;;;;;;5093540;28;20450;-72
2022/04/27 12:06:07;;;;;;;57.97;2.57;;;;;;;;;;5093540;28;20455;-72
2022/04/27 12:08:36;;;;;;;57.67;2.40;;;;;;;;;;5092526;28;20486;-72
2022/04/27 12:11:03;;;;;;;57.57;2.30;;;;;;;;;;5093642;28;20446;-71
2022/04/27 12:13:35;;;;;;;57.37;2.40;;;;;;;;;;5093575;28;20449;-71
2022/04/27 12:16:02;;;;;;;57.40;2.20;;;;;;;;;;5093608;28;20450;-72
2022/04/27 12:18:31;;;;;;;57.77;2.60;;;;;;;;;;5092740;28;20464;-72
2022/04/27 12:20:58;;;;;;;58.07;2.70;;;;;;;;;;5080984;28;20497;-71
2022/04/27 12:23:36;;;;;;;57.83;2.43;;;;;;;;;;5072442;28;20548;-72
2022/04/27 12:26:04;;;;;;;57.57;2.30;;;;;;;;;;5072878;28;20445;-72
2022/04/27 12:28:33;;;;;;;57.80;2.30;;;;;;;;;;5072491;28;20499;-73
2022/04/27 12:31:03;;;;;;;57.63;2.40;;;;;;;;;;5072956;28;20452;-71
2022/04/27 12:33:32;;;;;;;57.43;2.30;;;;;;;;;;5072577;28;20449;-72
2022/04/27 12:38:58;;;;;;;57.97;2.40;;;;;;;;;;5029902;28;20960;-71
2022/04/27 12:41:34;;;;;;;57.93;2.60;;;;;;;;;;5062448;28;20493;-71
2022/04/27 12:44:07;;;;;;;57.70;2.33;;;;;;;;;;5072289;28;20464;-72
2022/04/27 12:46:34;;;;;;;57.67;2.37;;;;;;;;;;5072544;28;20542;-71
2022/04/27 12:49:02;;;;;;;58.40;4.00;;;;;;;;;;5071532;28;20579;-71
2022/04/27 12:51:31;;;;;;;57.67;2.40;;;;;;;;;;5071732;28;20450;-71
2022/04/27 12:53:58;;;;;;;57.80;2.47;;;;;;;;;;5089202;28;20452;-71
2022/04/27 12:56:32;;;;;;;57.90;2.57;;;;;;;;;;5092713;28;20471;-71
2022/04/27 12:59:07;;;;;;;57.57;2.30;;;;;;;;;;5092379;28;20490;-71
2022/04/27 13:01:35;;;;;;;58.40;3.53;;;;;;;;;;5092140;28;21081;-71
2022/04/27 13:04:02;;;;;;;57.80;2.70;;;;;;;;;;5092006;28;20565;-72
2022/04/27 13:06:30;;;;;;;57.73;2.60;;;;;;;;;;5092347;28;20448;-71
2022/04/27 13:11:55;;;;;;;57.47;2.60;;;;;;;;;;5091159;28;20469;-71
2022/04/27 13:14:31;;;;;;;57.90;2.47;;;;;;;;;;5092056;28;20437;-71
2022/04/27 13:16:59;;;;;;;57.17;2.50;;;;;;;;;;5092361;28;20957;-71
2022/04/27 13:19:26;;;;;;;57.77;2.30;;;;;;;;;;5091593;28;20471;-71
2022/04/27 13:21:53;;;;;;;57.33;2.30;;;;;;;;;;5092342;28;20862;-72
2022/04/27 13:24:20;;;;;;;57.57;2.10;;;;;;;;;;5088469;28;21026;-72
2022/04/27 13:26:47;;;;;;;57.57;2.40;;;;;;;;;;5092046;28;20443;-72
2022/04/27 13:29:14;;;;;;;57.50;2.30;;;;;;;;;;5091197;28;20473;-73
2022/04/27 13:31:43;;;;;;;57.60;2.10;;;;;;;;;;5091950;28;20950;-72
2022/04/27 13:34:10;;;;;;;57.70;2.20;;;;;;;;;;5092215;28;20796;-72
2022/04/27 13:36:37;;;;;;;57.70;2.37;;;;;;;;;;5091932;28;20878;-72
2022/04/27 13:39:04;;;;;;;57.63;2.83;;;;;;;;;;5091436;28;20896;-72
2022/04/27 13:41:32;;;;;;;57.57;2.30;;;;;;;;;;5091964;28;20575;-72
2022/04/27 13:43:59;;;;;;;57.77;2.17;;;;;;;;;;5091185;28;20449;-72
2022/04/27 13:46:26;;;;;;;57.27;2.13;;;;;;;;;;5091443;28;20446;-72
2022/04/27 13:48:54;;;;;;;57.50;2.50;;;;;;;;;;5090887;28;20483;-72
2022/04/27 13:51:22;;;;;;;57.43;2.17;;;;;;;;;;5091570;28;20444;-72
2022/04/27 13:53:49;;;;;;;57.37;2.10;;;;;;;;;;5091998;28;20447;-71
2022/04/27 13:56:16;;;;;;;57.30;2.33;;;;;;;;;;5086582;28;20447;-71
2022/04/27 13:58:43;;;;;;;57.10;2.23;;;;;;;;;;5091247;28;20983;-73
2022/04/27 14:01:10;;;;;;;57.70;2.40;;;;;;;;;;5091491;28;20486;-72
2022/04/27 14:03:38;;;;;;;58.00;2.50;;;;;;;;;;5090995;28;20489;-73
2022/04/27 14:06:06;;;;;;;57.57;2.20;;;;;;;;;;5091428;28;20530;-71
2022/04/27 14:08:33;;;;;;;57.87;2.40;;;;;;;;;;5090819;28;20449;-71
2022/04/27 14:11:00;;;;;;;57.27;2.30;;;;;;;;;;5091125;28;20524;-72
2022/04/27 14:13:27;;;;;;;57.47;2.17;;;;;;;;;;5091036;28;21137;-72
2022/04/27 14:18:39;;;;;;;57.23;2.30;;;;;;;;;;5090845;28;20445;-72
2022/04/27 14:21:08;;;;;;;57.40;2.33;;;;;;;;;;5097669;28;20478;-72
2022/04/27 14:23:35;;;;;;;58.30;3.83;;;;;;;;;;5097419;28;20947;-72
2022/04/27 14:26:02;;;;;;;57.77;2.53;;;;;;;;;;5097925;28;20734;-72
2022/04/27 14:28:31;;;;;;;57.53;2.00;;;;;;;;;;5093989;28;20542;-72
2022/04/27 14:30:58;;;;;;;57.30;2.10;;;;;;;;;;5098205;28;20560;-72
2022/04/27 14:33:25;;;;;;;57.23;2.47;;;;;;;;;;5098435;28;20528;-71
2022/04/27 14:35:52;;;;;;;57.07;2.13;;;;;;;;;;5097704;28;20963;-70
2022/04/27 14:38:22;;;;;;;57.40;2.20;;;;;;;;;;5097262;28;20535;-72
2022/04/27 14:40:49;;;;;;;57.00;2.00;;;;;;;;;;5097908;28;20474;-73
2022/04/27 14:43:16;;;;;;;57.67;2.00;;;;;;;;;;5097587;28;20473;-73
2022/04/27 14:45:43;;;;;;;57.27;2.10;;;;;;;;;;5097377;28;20450;-73
2022/04/27 14:48:11;;;;;;;57.70;2.00;;;;;;;;;;5097274;28;20454;-72
2022/04/27 14:50:38;;;;;;;57.70;2.00;;;;;;;;;;5097879;28;20472;-74
2022/04/27 14:53:05;;;;;;;57.90;2.40;;;;;;;;;;5097739;28;20456;-73
2022/04/27 14:55:34;;;;;;;57.67;1.97;;;;;;;;;;5097853;28;20544;-73
2022/04/27 14:58:01;;;;;;;57.50;2.07;;;;;;;;;;5097173;28;20449;-73
2022/04/27 15:00:28;;;;;;;57.53;2.50;;;;;;;;;;5098019;28;20482;-73